This is the latest recevied weather packets stored in our database for station/object HS5GDX-4. If no packets are shown the sender has not sent any weather packets the latest 10 day(s).
| Time | Temp. | Humidity | Pressure | Rain* | Wind** | Luminosity | Snow |
|---|---|---|---|---|---|---|---|
| 1777977372 | 36.67° C | 38% | 964 hPa | - | - | 0 W/m² | - |
| 1777976480 | 37.22° C | 37% | 964 hPa | - | - | 0 W/m² | - |
| 1777976443 | 37.22° C | 37% | 964 hPa | - | - | 0 W/m² | - |
| 1777975513 | 36.67° C | 37% | 964 hPa | - | - | 0 W/m² | - |
| 1777974585 | 37.22° C | 36% | 964 hPa | - | - | 0 W/m² | - |
| 1777973657 | 36.67° C | 37% | 964 hPa | - | - | 0 W/m² | - |
| 1777972729 | 36.67° C | 37% | 964 hPa | - | - | 0 W/m² | - |
| 1777971801 | 36.67° C | 37% | 965 hPa | - | - | 0 W/m² | - |
| 1777970873 | 36.67° C | 37% | 965 hPa | - | - | 0 W/m² | - |
| 1777969944 | 35.56° C | 39% | 965 hPa | - | - | 0 W/m² | - |
| 1777969016 | 35.56° C | 39% | 965 hPa | - | - | 0 W/m² | - |
| 1777968087 | 35° C | 41% | 965 hPa | - | - | 0 W/m² | - |
| 1777967159 | 33.89° C | 43% | 966 hPa | - | - | 0 W/m² | - |
| 1777967134 | 33.89° C | 43% | 966 hPa | - | - | 0 W/m² | - |
| 1777967018 | 33.33° C | 44% | 966 hPa | - | - | 0 W/m² | - |
| 1777963381 | 36.11° C | 38% | 967 hPa | - | - | 0 W/m² | - |
| 1777962453 | 35.56° C | 40% | 967 hPa | - | - | 0 W/m² | - |
| 1777962337 | 35° C | 41% | 967 hPa | - | - | 0 W/m² | - |
| 1777962106 | 35° C | 42% | 967 hPa | - | - | 0 W/m² | - |
| 1777960713 | 33.89° C | 44% | 968 hPa | - | - | 0 W/m² | - |
| 1777959322 | 33.33° C | 46% | 969 hPa | - | - | 0 W/m² | - |
| 1777957957 | 31.11° C | 51% | 969 hPa | - | - | 0 W/m² | - |
| 1777897071 | 36.67° C | 32% | 964 hPa | - | - | 0 W/m² | - |
| 1777895683 | 38.33° C | 29% | 964 hPa | - | - | 0 W/m² | - |
| 1777894293 | 37.78° C | 30% | 964 hPa | - | - | 0 W/m² | - |
* Rain since midnight (hover to see other rain measurements)
** Current wind speed in m/s (hover to see current wind gust speed)